NKS3799 KDTW-KACY
Flight info
| Callsign | NKS3799 |
|---|---|
| Flight time | 1h 1m |
| Altitude | 39000 |
| Route | PAVYL3 ESSBE CXR REC HAR MXE VCN ACY |
| Aircraft | A320/M-SDE3FGHIRWY/LB1 |
Departure
| Time | 2026-05-06 19:33 |
|---|---|
| Airport | Detroit Metropolitan Wayne County Airport (KDTW) |
Arrival
| Time | 2026-05-06 20:34 |
|---|---|
| Airport | Atlantic City International Airport (KACY) |
| Time | Latitude | Longitude | Altitude | Speed | Heading |
|---|---|---|---|---|---|
| 2026-05-06 19:12 | 42.22478 | -83.34993 | 651 ft | 0 kts | 146° |
| 2026-05-06 19:21 | 42.22491 | -83.35005 | 649 ft | 2 kts | 146° |
| 2026-05-06 19:22 | 42.22504 | -83.35017 | 651 ft | 2 kts | 146° |
| 2026-05-06 19:22 | 42.22518 | -83.35029 | 652 ft | 2 kts | 147° |
| 2026-05-06 19:22 | 42.22532 | -83.35040 | 651 ft | 2 kts | 167° |
| 2026-05-06 19:22 | 42.22548 | -83.35039 | 649 ft | 2 kts | 212° |
| 2026-05-06 19:23 | 42.22549 | -83.35038 | 649 ft | 0 kts | 211° |
| 2026-05-06 19:25 | 42.22549 | -83.35039 | 649 ft | 1 kts | 211° |
| 2026-05-06 19:25 | 42.22535 | -83.35049 | 649 ft | 4 kts | 209° |
| 2026-05-06 19:25 | 42.22512 | -83.35094 | 651 ft | 8 kts | 266° |
| 2026-05-06 19:25 | 42.22541 | -83.35181 | 649 ft | 12 kts | 297° |
| 2026-05-06 19:26 | 42.22520 | -83.35275 | 651 ft | 14 kts | 209° |
| 2026-05-06 19:26 | 42.22422 | -83.35348 | 650 ft | 18 kts | 209° |
| 2026-05-06 19:26 | 42.22298 | -83.35440 | 650 ft | 22 kts | 208° |
| 2026-05-06 19:26 | 42.22149 | -83.35548 | 649 ft | 26 kts | 208° |
| 2026-05-06 19:27 | 42.21988 | -83.35666 | 649 ft | 25 kts | 208° |
| 2026-05-06 19:27 | 42.21866 | -83.35755 | 648 ft | 15 kts | 197° |
| 2026-05-06 19:27 | 42.21818 | -83.35654 | 648 ft | 16 kts | 88° |
| 2026-05-06 19:27 | 42.21820 | -83.35496 | 649 ft | 18 kts | 88° |
| 2026-05-06 19:28 | 42.21823 | -83.35318 | 649 ft | 20 kts | 89° |
| 2026-05-06 19:28 | 42.21827 | -83.35119 | 649 ft | 19 kts | 88° |
| 2026-05-06 19:28 | 42.21834 | -83.34927 | 650 ft | 20 kts | 86° |
| 2026-05-06 19:28 | 42.21834 | -83.34788 | 650 ft | 14 kts | 92° |
| 2026-05-06 19:29 | 42.21835 | -83.34653 | 650 ft | 15 kts | 88° |
| 2026-05-06 19:29 | 42.21799 | -83.34546 | 651 ft | 13 kts | 186° |
| 2026-05-06 19:29 | 42.21714 | -83.34606 | 652 ft | 15 kts | 210° |
| 2026-05-06 19:29 | 42.21612 | -83.34683 | 650 ft | 19 kts | 208° |
| 2026-05-06 19:30 | 42.21487 | -83.34774 | 649 ft | 22 kts | 209° |
| 2026-05-06 19:30 | 42.21348 | -83.34877 | 649 ft | 22 kts | 208° |
| 2026-05-06 19:30 | 42.21222 | -83.34967 | 649 ft | 21 kts | 208° |
| 2026-05-06 19:30 | 42.21086 | -83.35070 | 649 ft | 24 kts | 209° |
| 2026-05-06 19:31 | 42.20957 | -83.35165 | 649 ft | 18 kts | 208° |
| 2026-05-06 19:31 | 42.20870 | -83.35221 | 649 ft | 10 kts | 194° |
| 2026-05-06 19:31 | 42.20821 | -83.35183 | 649 ft | 5 kts | 128° |
| 2026-05-06 19:32 | 42.20800 | -83.35121 | 649 ft | 8 kts | 81° |
| 2026-05-06 19:32 | 42.20866 | -83.35063 | 650 ft | 21 kts | 28° |
| 2026-05-06 19:32 | 42.21232 | -83.34792 | 648 ft | 95 kts | 29° |
| 2026-05-06 19:32 | 42.21988 | -83.34236 | 651 ft | 150 kts | 28° |
| 2026-05-06 19:33 | 42.22950 | -83.33514 | 1066 ft | 161 kts | 25° |
| 2026-05-06 19:33 | 42.23928 | -83.32728 | 1810 ft | 164 kts | 35° |
| 2026-05-06 19:33 | 42.24705 | -83.31598 | 2513 ft | 168 kts | 46° |
| 2026-05-06 19:33 | 42.25505 | -83.30331 | 2944 ft | 189 kts | 46° |
| 2026-05-06 19:34 | 42.26338 | -83.28825 | 3346 ft | 216 kts | 64° |
| 2026-05-06 19:34 | 42.26510 | -83.26704 | 3800 ft | 244 kts | 100° |
| 2026-05-06 19:34 | 42.26107 | -83.24358 | 4393 ft | 269 kts | 104° |
| 2026-05-06 19:34 | 42.25634 | -83.21857 | 5280 ft | 278 kts | 104° |
| 2026-05-06 19:35 | 42.25144 | -83.19318 | 6278 ft | 282 kts | 104° |
| 2026-05-06 19:35 | 42.24644 | -83.16723 | 7135 ft | 287 kts | 105° |
| 2026-05-06 19:35 | 42.24138 | -83.14083 | 7955 ft | 295 kts | 105° |
| 2026-05-06 19:35 | 42.23624 | -83.11376 | 8753 ft | 301 kts | 105° |
| 2026-05-06 19:36 | 42.23099 | -83.08605 | 9565 ft | 308 kts | 106° |
| 2026-05-06 19:36 | 42.22563 | -83.05772 | 10234 ft | 319 kts | 106° |
| 2026-05-06 19:36 | 42.21994 | -83.02762 | 10494 ft | 342 kts | 106° |
| 2026-05-06 19:36 | 42.21387 | -82.99551 | 10804 ft | 362 kts | 106° |
| 2026-05-06 19:37 | 42.20759 | -82.96218 | 11415 ft | 370 kts | 106° |
| 2026-05-06 19:37 | 42.20122 | -82.92826 | 12082 ft | 376 kts | 107° |
| 2026-05-06 19:37 | 42.19474 | -82.89379 | 12760 ft | 382 kts | 107° |
| 2026-05-06 19:37 | 42.19039 | -82.87069 | 13206 ft | 386 kts | 107° |
| 2026-05-06 19:38 | 42.18141 | -82.82327 | 14042 ft | 394 kts | 108° |
| 2026-05-06 19:38 | 42.17460 | -82.78739 | 14705 ft | 397 kts | 108° |
| 2026-05-06 19:38 | 42.16782 | -82.75172 | 15338 ft | 399 kts | 109° |
| 2026-05-06 19:38 | 42.16076 | -82.71487 | 15983 ft | 402 kts | 110° |
| 2026-05-06 19:39 | 42.15381 | -82.67870 | 16579 ft | 406 kts | 110° |
| 2026-05-06 19:39 | 42.14698 | -82.64157 | 17175 ft | 413 kts | 107° |
| 2026-05-06 19:39 | 42.14370 | -82.60269 | 17771 ft | 423 kts | 96° |
| 2026-05-06 19:39 | 42.14358 | -82.56272 | 18361 ft | 429 kts | 95° |
| 2026-05-06 19:40 | 42.14347 | -82.52229 | 18895 ft | 433 kts | 95° |
| 2026-05-06 19:40 | 42.14327 | -82.48150 | 19435 ft | 438 kts | 95° |
| 2026-05-06 19:40 | 42.14170 | -82.44045 | 19975 ft | 439 kts | 102° |
| 2026-05-06 19:40 | 42.13677 | -82.39977 | 20509 ft | 442 kts | 105° |
| 2026-05-06 19:41 | 42.13157 | -82.35877 | 21019 ft | 446 kts | 104° |
| 2026-05-06 19:41 | 42.12632 | -82.31728 | 21512 ft | 451 kts | 104° |
| 2026-05-06 19:41 | 42.12106 | -82.27538 | 22014 ft | 456 kts | 104° |
| 2026-05-06 19:41 | 42.11574 | -82.23303 | 22499 ft | 461 kts | 104° |
| 2026-05-06 19:42 | 42.11037 | -82.19030 | 22991 ft | 466 kts | 104° |
| 2026-05-06 19:42 | 42.10492 | -82.14704 | 23467 ft | 470 kts | 103° |
| 2026-05-06 19:42 | 42.09941 | -82.10336 | 23863 ft | 475 kts | 104° |
| 2026-05-06 19:42 | 42.09380 | -82.05922 | 24227 ft | 480 kts | 104° |
| 2026-05-06 19:43 | 42.08811 | -82.01476 | 24582 ft | 485 kts | 104° |
| 2026-05-06 19:43 | 42.08239 | -81.97031 | 24926 ft | 490 kts | 104° |
| 2026-05-06 19:43 | 42.07652 | -81.92494 | 25269 ft | 494 kts | 104° |
| 2026-05-06 19:43 | 42.06989 | -81.87940 | 25605 ft | 496 kts | 110° |
| 2026-05-06 19:44 | 42.05912 | -81.83550 | 25937 ft | 493 kts | 120° |
| 2026-05-06 19:44 | 42.04398 | -81.79436 | 26264 ft | 488 kts | 129° |
| 2026-05-06 19:44 | 42.02498 | -81.75687 | 26594 ft | 482 kts | 138° |
| 2026-05-06 19:44 | 42.00272 | -81.72367 | 26926 ft | 474 kts | 147° |
| 2026-05-06 19:45 | 41.97810 | -81.69440 | 27272 ft | 472 kts | 150° |
| 2026-05-06 19:45 | 41.95312 | -81.66546 | 27619 ft | 476 kts | 151° |
| 2026-05-06 19:45 | 41.92798 | -81.63631 | 27939 ft | 480 kts | 151° |
| 2026-05-06 19:45 | 41.90261 | -81.60688 | 28286 ft | 483 kts | 151° |
| 2026-05-06 19:46 | 41.87710 | -81.57727 | 28556 ft | 488 kts | 152° |
| 2026-05-06 19:46 | 41.85127 | -81.54736 | 28844 ft | 492 kts | 152° |
| 2026-05-06 19:46 | 41.82526 | -81.51729 | 29167 ft | 496 kts | 152° |
| 2026-05-06 19:46 | 41.79905 | -81.48702 | 29493 ft | 499 kts | 153° |
| 2026-05-06 19:47 | 41.77260 | -81.45652 | 29829 ft | 502 kts | 153° |
| 2026-05-06 19:47 | 41.74597 | -81.42589 | 30134 ft | 506 kts | 153° |
| 2026-05-06 19:47 | 41.71919 | -81.39511 | 30400 ft | 509 kts | 153° |
| 2026-05-06 19:47 | 41.69262 | -81.36458 | 30662 ft | 511 kts | 153° |
| 2026-05-06 19:48 | 41.66559 | -81.33352 | 31020 ft | 512 kts | 153° |
| 2026-05-06 19:48 | 41.63856 | -81.30247 | 31326 ft | 513 kts | 153° |
| 2026-05-06 19:48 | 41.61146 | -81.27139 | 31657 ft | 514 kts | 153° |
| 2026-05-06 19:48 | 41.58432 | -81.24032 | 32014 ft | 515 kts | 153° |
| 2026-05-06 19:49 | 41.55711 | -81.20915 | 32383 ft | 516 kts | 153° |
| 2026-05-06 19:49 | 41.53109 | -81.17514 | 32748 ft | 533 kts | 144° |
| 2026-05-06 19:49 | 41.50801 | -81.13551 | 33111 ft | 549 kts | 134° |
| 2026-05-06 19:49 | 41.48872 | -81.09073 | 33470 ft | 563 kts | 126° |
| 2026-05-06 19:50 | 41.47095 | -81.04424 | 33831 ft | 563 kts | 127° |
| 2026-05-06 19:50 | 41.45307 | -80.99759 | 34168 ft | 564 kts | 127° |
| 2026-05-06 19:50 | 41.43515 | -80.95114 | 34523 ft | 563 kts | 127° |
| 2026-05-06 19:50 | 41.41722 | -80.90492 | 34862 ft | 561 kts | 126° |
| 2026-05-06 19:51 | 41.40527 | -80.87427 | 35062 ft | 561 kts | 127° |
| 2026-05-06 19:51 | 41.38720 | -80.82811 | 35397 ft | 560 kts | 127° |
| 2026-05-06 19:51 | 41.36918 | -80.78216 | 35744 ft | 559 kts | 127° |
| 2026-05-06 19:51 | 41.35123 | -80.73628 | 36095 ft | 558 kts | 126° |
| 2026-05-06 19:52 | 41.33330 | -80.69048 | 36442 ft | 557 kts | 126° |
| 2026-05-06 19:52 | 41.31536 | -80.64477 | 36782 ft | 556 kts | 127° |
| 2026-05-06 19:52 | 41.29750 | -80.59931 | 37095 ft | 555 kts | 126° |
| 2026-05-06 19:52 | 41.27959 | -80.55379 | 37453 ft | 554 kts | 126° |
| 2026-05-06 19:53 | 41.26176 | -80.50849 | 37778 ft | 553 kts | 126° |
| 2026-05-06 19:53 | 41.24393 | -80.46323 | 38085 ft | 552 kts | 126° |
| 2026-05-06 19:53 | 41.22608 | -80.41801 | 38388 ft | 551 kts | 126° |
| 2026-05-06 19:53 | 41.20825 | -80.37302 | 38664 ft | 550 kts | 126° |
| 2026-05-06 19:54 | 41.19038 | -80.32809 | 38869 ft | 550 kts | 126° |
| 2026-05-06 19:54 | 41.17277 | -80.28378 | 38932 ft | 550 kts | 126° |
| 2026-05-06 19:54 | 41.13707 | -80.19396 | 38907 ft | 550 kts | 126° |
| 2026-05-06 19:55 | 41.10123 | -80.10392 | 38940 ft | 553 kts | 126° |
| 2026-05-06 19:55 | 41.06526 | -80.01391 | 38922 ft | 553 kts | 126° |
| 2026-05-06 19:56 | 41.02906 | -79.92396 | 38924 ft | 553 kts | 126° |
| 2026-05-06 19:56 | 40.99288 | -79.83415 | 38921 ft | 553 kts | 126° |
| 2026-05-06 19:57 | 40.95662 | -79.74429 | 38911 ft | 553 kts | 126° |
| 2026-05-06 19:57 | 40.92050 | -79.65522 | 38915 ft | 554 kts | 126° |
| 2026-05-06 19:58 | 40.88408 | -79.56556 | 38910 ft | 553 kts | 126° |
| 2026-05-06 19:58 | 40.84756 | -79.47591 | 38887 ft | 554 kts | 126° |
| 2026-05-06 19:59 | 40.81094 | -79.38644 | 38880 ft | 554 kts | 126° |
| 2026-05-06 19:59 | 40.77428 | -79.29697 | 38915 ft | 554 kts | 126° |
| 2026-05-06 20:00 | 40.73754 | -79.20754 | 38929 ft | 554 kts | 126° |
| 2026-05-06 20:00 | 40.70076 | -79.11824 | 38938 ft | 554 kts | 127° |
| 2026-05-06 20:01 | 40.66391 | -79.02909 | 38917 ft | 554 kts | 126° |
| 2026-05-06 20:01 | 40.62727 | -78.94074 | 38935 ft | 553 kts | 127° |
| 2026-05-06 20:02 | 40.59033 | -78.85196 | 38883 ft | 552 kts | 127° |
| 2026-05-06 20:02 | 40.55512 | -78.76191 | 38884 ft | 560 kts | 117° |
| 2026-05-06 20:03 | 40.53472 | -78.66228 | 38864 ft | 569 kts | 103° |
| 2026-05-06 20:03 | 40.52073 | -78.55995 | 38874 ft | 569 kts | 103° |
| 2026-05-06 20:04 | 40.50638 | -78.45760 | 38879 ft | 569 kts | 104° |
| 2026-05-06 20:04 | 40.49184 | -78.35525 | 38882 ft | 569 kts | 104° |
| 2026-05-06 20:05 | 40.47728 | -78.25310 | 38884 ft | 569 kts | 104° |
| 2026-05-06 20:05 | 40.46270 | -78.15089 | 38876 ft | 569 kts | 104° |
| 2026-05-06 20:06 | 40.44809 | -78.04864 | 38868 ft | 569 kts | 104° |
| 2026-05-06 20:06 | 40.43332 | -77.94659 | 38836 ft | 569 kts | 104° |
| 2026-05-06 20:07 | 40.41836 | -77.84502 | 38834 ft | 570 kts | 104° |
| 2026-05-06 20:07 | 40.40336 | -77.74283 | 38839 ft | 570 kts | 104° |
| 2026-05-06 20:08 | 40.38832 | -77.64062 | 38836 ft | 571 kts | 104° |
| 2026-05-06 20:08 | 40.38076 | -77.58952 | 38523 ft | 574 kts | 104° |
| 2026-05-06 20:08 | 40.37310 | -77.53804 | 37921 ft | 574 kts | 104° |
| 2026-05-06 20:09 | 40.36542 | -77.48679 | 37322 ft | 573 kts | 104° |
| 2026-05-06 20:09 | 40.35775 | -77.43552 | 36744 ft | 572 kts | 104° |
| 2026-05-06 20:09 | 40.35008 | -77.38437 | 36182 ft | 572 kts | 104° |
| 2026-05-06 20:09 | 40.34238 | -77.33317 | 35631 ft | 572 kts | 104° |
| 2026-05-06 20:10 | 40.33467 | -77.28207 | 35077 ft | 572 kts | 104° |
| 2026-05-06 20:10 | 40.32693 | -77.23098 | 34481 ft | 572 kts | 105° |
| 2026-05-06 20:10 | 40.31912 | -77.17984 | 33890 ft | 572 kts | 105° |
| 2026-05-06 20:10 | 40.31128 | -77.12883 | 33234 ft | 571 kts | 105° |
| 2026-05-06 20:11 | 40.30308 | -77.07800 | 32582 ft | 568 kts | 109° |
| 2026-05-06 20:11 | 40.29140 | -77.02888 | 31943 ft | 562 kts | 115° |
| 2026-05-06 20:11 | 40.27849 | -76.98077 | 31324 ft | 559 kts | 115° |
| 2026-05-06 20:11 | 40.26564 | -76.93285 | 30744 ft | 555 kts | 115° |
| 2026-05-06 20:12 | 40.25291 | -76.88537 | 30210 ft | 550 kts | 115° |
| 2026-05-06 20:12 | 40.24029 | -76.83838 | 29593 ft | 545 kts | 115° |
| 2026-05-06 20:12 | 40.22773 | -76.79172 | 28963 ft | 540 kts | 115° |
| 2026-05-06 20:12 | 40.21528 | -76.74567 | 28350 ft | 535 kts | 115° |
| 2026-05-06 20:13 | 40.20289 | -76.69991 | 27747 ft | 530 kts | 115° |
| 2026-05-06 20:13 | 40.19061 | -76.65469 | 27158 ft | 526 kts | 115° |
| 2026-05-06 20:13 | 40.17857 | -76.61038 | 26587 ft | 522 kts | 115° |
| 2026-05-06 20:13 | 40.16645 | -76.56586 | 26026 ft | 518 kts | 115° |
| 2026-05-06 20:14 | 40.15439 | -76.52173 | 25480 ft | 514 kts | 115° |
| 2026-05-06 20:14 | 40.14238 | -76.47783 | 24931 ft | 511 kts | 115° |
| 2026-05-06 20:14 | 40.13045 | -76.43432 | 24394 ft | 506 kts | 115° |
| 2026-05-06 20:14 | 40.11860 | -76.39121 | 23874 ft | 502 kts | 115° |
| 2026-05-06 20:15 | 40.10682 | -76.34837 | 23348 ft | 499 kts | 115° |
| 2026-05-06 20:15 | 40.09515 | -76.30590 | 22720 ft | 495 kts | 114° |
| 2026-05-06 20:15 | 40.08355 | -76.26370 | 22102 ft | 491 kts | 114° |
| 2026-05-06 20:15 | 40.07205 | -76.22198 | 21539 ft | 486 kts | 114° |
| 2026-05-06 20:16 | 40.06065 | -76.18065 | 20982 ft | 481 kts | 114° |
| 2026-05-06 20:16 | 40.04937 | -76.13984 | 20413 ft | 476 kts | 114° |
| 2026-05-06 20:16 | 40.03815 | -76.09937 | 19878 ft | 472 kts | 114° |
| 2026-05-06 20:16 | 40.02700 | -76.05934 | 19348 ft | 467 kts | 114° |
| 2026-05-06 20:17 | 40.01594 | -76.01971 | 18834 ft | 463 kts | 114° |
| 2026-05-06 20:17 | 40.00498 | -75.98042 | 18332 ft | 459 kts | 114° |
| 2026-05-06 20:17 | 39.99409 | -75.94147 | 17778 ft | 455 kts | 114° |
| 2026-05-06 20:17 | 39.98344 | -75.90337 | 17228 ft | 451 kts | 114° |
| 2026-05-06 20:18 | 39.97273 | -75.86508 | 16653 ft | 447 kts | 114° |
| 2026-05-06 20:18 | 39.96216 | -75.82740 | 16303 ft | 437 kts | 114° |
| 2026-05-06 20:18 | 39.95186 | -75.79066 | 16051 ft | 424 kts | 114° |
| 2026-05-06 20:18 | 39.94187 | -75.75505 | 15789 ft | 415 kts | 115° |
| 2026-05-06 20:19 | 39.93194 | -75.71987 | 15543 ft | 412 kts | 115° |
| 2026-05-06 20:19 | 39.92181 | -75.68509 | 15164 ft | 408 kts | 119° |
| 2026-05-06 20:19 | 39.90861 | -75.65305 | 14686 ft | 397 kts | 130° |
| 2026-05-06 20:19 | 39.89297 | -75.62363 | 14211 ft | 392 kts | 131° |
| 2026-05-06 20:20 | 39.87749 | -75.59458 | 13716 ft | 389 kts | 132° |
| 2026-05-06 20:20 | 39.86342 | -75.56438 | 13127 ft | 396 kts | 119° |
| 2026-05-06 20:20 | 39.85462 | -75.53025 | 12536 ft | 398 kts | 111° |
| 2026-05-06 20:20 | 39.84667 | -75.49570 | 11954 ft | 397 kts | 111° |
| 2026-05-06 20:21 | 39.83890 | -75.46140 | 11381 ft | 395 kts | 111° |
| 2026-05-06 20:21 | 39.83134 | -75.42781 | 11016 ft | 387 kts | 111° |
| 2026-05-06 20:21 | 39.82387 | -75.39462 | 10760 ft | 375 kts | 111° |
| 2026-05-06 20:21 | 39.81661 | -75.36246 | 10516 ft | 365 kts | 112° |
| 2026-05-06 20:22 | 39.80948 | -75.33116 | 10275 ft | 356 kts | 112° |
| 2026-05-06 20:22 | 39.80249 | -75.30075 | 10134 ft | 345 kts | 112° |
| 2026-05-06 20:22 | 39.79571 | -75.27136 | 10010 ft | 334 kts | 112° |
| 2026-05-06 20:22 | 39.78906 | -75.24268 | 9755 ft | 329 kts | 113° |
| 2026-05-06 20:23 | 39.78244 | -75.21427 | 9434 ft | 327 kts | 112° |
| 2026-05-06 20:23 | 39.77589 | -75.18609 | 9101 ft | 325 kts | 112° |
| 2026-05-06 20:23 | 39.76942 | -75.15808 | 8775 ft | 322 kts | 112° |
| 2026-05-06 20:23 | 39.76310 | -75.13063 | 8524 ft | 321 kts | 112° |
| 2026-05-06 20:24 | 39.75670 | -75.10288 | 8281 ft | 320 kts | 112° |
| 2026-05-06 20:24 | 39.75026 | -75.07513 | 8053 ft | 320 kts | 112° |
| 2026-05-06 20:24 | 39.74385 | -75.04757 | 7977 ft | 318 kts | 112° |
| 2026-05-06 20:24 | 39.73743 | -75.02007 | 7997 ft | 318 kts | 112° |
| 2026-05-06 20:25 | 39.73097 | -74.99253 | 7999 ft | 318 kts | 112° |
| 2026-05-06 20:25 | 39.72451 | -74.96502 | 7995 ft | 319 kts | 112° |
| 2026-05-06 20:25 | 39.71807 | -74.93749 | 7996 ft | 315 kts | 112° |
| 2026-05-06 20:25 | 39.71187 | -74.91073 | 7897 ft | 302 kts | 112° |
| 2026-05-06 20:26 | 39.70600 | -74.88527 | 7679 ft | 287 kts | 112° |
| 2026-05-06 20:26 | 39.70028 | -74.86069 | 7312 ft | 283 kts | 113° |
| 2026-05-06 20:26 | 39.69457 | -74.83642 | 6874 ft | 279 kts | 112° |
| 2026-05-06 20:26 | 39.68888 | -74.81246 | 6413 ft | 277 kts | 112° |
| 2026-05-06 20:27 | 39.68323 | -74.78862 | 5946 ft | 275 kts | 112° |
| 2026-05-06 20:27 | 39.67769 | -74.76504 | 5498 ft | 271 kts | 111° |
| 2026-05-06 20:27 | 39.67225 | -74.74178 | 5078 ft | 269 kts | 111° |
| 2026-05-06 20:27 | 39.66683 | -74.71877 | 4721 ft | 272 kts | 111° |
| 2026-05-06 20:28 | 39.66119 | -74.69500 | 4335 ft | 279 kts | 111° |
| 2026-05-06 20:28 | 39.65538 | -74.67057 | 3964 ft | 287 kts | 111° |
| 2026-05-06 20:28 | 39.64946 | -74.64567 | 3571 ft | 291 kts | 111° |
| 2026-05-06 20:28 | 39.64258 | -74.62120 | 3203 ft | 285 kts | 118° |
| 2026-05-06 20:29 | 39.63499 | -74.59789 | 2827 ft | 275 kts | 118° |
| 2026-05-06 20:29 | 39.62768 | -74.57543 | 2457 ft | 265 kts | 119° |
| 2026-05-06 20:29 | 39.62070 | -74.55408 | 2193 ft | 250 kts | 119° |
| 2026-05-06 20:29 | 39.61223 | -74.53576 | 1943 ft | 225 kts | 142° |
| 2026-05-06 20:30 | 39.59991 | -74.52500 | 1740 ft | 206 kts | 167° |
| 2026-05-06 20:30 | 39.57510 | -74.52429 | 1757 ft | 161 kts | 199° |
| 2026-05-06 20:30 | 39.56494 | -74.52725 | 1688 ft | 141 kts | 199° |
| 2026-05-06 20:31 | 39.55569 | -74.52999 | 1635 ft | 134 kts | 199° |
| 2026-05-06 20:31 | 39.54675 | -74.53271 | 1617 ft | 130 kts | 200° |
| 2026-05-06 20:31 | 39.53795 | -74.53544 | 1588 ft | 131 kts | 200° |
| 2026-05-06 20:31 | 39.52915 | -74.53811 | 1415 ft | 129 kts | 199° |
| 2026-05-06 20:32 | 39.52039 | -74.54078 | 1282 ft | 132 kts | 199° |
| 2026-05-06 20:32 | 39.51159 | -74.54372 | 1090 ft | 129 kts | 204° |
| 2026-05-06 20:32 | 39.50354 | -74.54840 | 938 ft | 130 kts | 212° |
| 2026-05-06 20:32 | 39.49541 | -74.55399 | 769 ft | 130 kts | 210° |
| 2026-05-06 20:33 | 39.48742 | -74.55938 | 632 ft | 128 kts | 211° |
| 2026-05-06 20:33 | 39.47929 | -74.56498 | 451 ft | 132 kts | 209° |
| 2026-05-06 20:33 | 39.47113 | -74.57050 | 248 ft | 134 kts | 208° |
| 2026-05-06 20:33 | 39.46297 | -74.57613 | 91 ft | 131 kts | 210° |
| 2026-05-06 20:34 | 39.45674 | -74.58040 | 74 ft | 61 kts | 207° |
| 2026-05-06 20:34 | 39.45452 | -74.58190 | 71 ft | 31 kts | 208° |
| 2026-05-06 20:34 | 39.45314 | -74.58274 | 69 ft | 13 kts | 178° |
| 2026-05-06 20:34 | 39.45245 | -74.58198 | 75 ft | 13 kts | 135° |
| 2026-05-06 20:35 | 39.45229 | -74.58177 | 69 ft | 0 kts | 135° |
| 2026-05-06 20:35 | 39.45224 | -74.58171 | 71 ft | 3 kts | 136° |
| 2026-05-06 20:35 | 39.45181 | -74.58119 | 72 ft | 13 kts | 136° |
| 2026-05-06 20:35 | 39.45101 | -74.58019 | 75 ft | 18 kts | 136° |
| 2026-05-06 20:36 | 39.45111 | -74.57895 | 72 ft | 17 kts | 56° |
| 2026-05-06 20:36 | 39.45189 | -74.57749 | 74 ft | 22 kts | 56° |
| 2026-05-06 20:36 | 39.45283 | -74.57573 | 70 ft | 22 kts | 56° |
| 2026-05-06 20:36 | 39.45329 | -74.57456 | 77 ft | 13 kts | 101° |
| 2026-05-06 20:37 | 39.45247 | -74.57369 | 77 ft | 18 kts | 145° |
| 2026-05-06 20:37 | 39.45169 | -74.57323 | 72 ft | 7 kts | 167° |
| 2026-05-06 20:37 | 39.45159 | -74.57320 | 72 ft | 0 kts | 167° |